sensor_id;sensor_type;location;lat;lon;timestamp;temperature;humidity
7234;DHT22;3658;47.992;10.158;2022-12-18T00:01:05;19.90;32.20
7234;DHT22;3658;47.992;10.158;2022-12-18T00:03:34;19.90;32.20
7234;DHT22;3658;47.992;10.158;2022-12-18T00:06:01;19.90;32.10
7234;DHT22;3658;47.992;10.158;2022-12-18T00:08:28;19.90;31.90
7234;DHT22;3658;47.992;10.158;2022-12-18T00:10:55;19.90;31.90
7234;DHT22;3658;47.992;10.158;2022-12-18T00:13:29;19.90;31.90
7234;DHT22;3658;47.992;10.158;2022-12-18T00:16:02;19.90;31.60
7234;DHT22;3658;47.992;10.158;2022-12-18T00:18:29;19.90;31.60
7234;DHT22;3658;47.992;10.158;2022-12-18T00:21:00;19.90;31.60
7234;DHT22;3658;47.992;10.158;2022-12-18T00:23:28;19.90;31.60
7234;DHT22;3658;47.992;10.158;2022-12-18T00:25:58;20.00;31.60
7234;DHT22;3658;47.992;10.158;2022-12-18T00:28:25;19.90;31.50
7234;DHT22;3658;47.992;10.158;2022-12-18T00:31:00;19.90;31.40
7234;DHT22;3658;47.992;10.158;2022-12-18T00:33:27;19.90;31.40
7234;DHT22;3658;47.992;10.158;2022-12-18T00:35:54;19.90;31.40
7234;DHT22;3658;47.992;10.158;2022-12-18T00:38:22;19.90;31.30
7234;DHT22;3658;47.992;10.158;2022-12-18T00:40:49;19.90;31.40
7234;DHT22;3658;47.992;10.158;2022-12-18T00:43:16;19.90;31.20
7234;DHT22;3658;47.992;10.158;2022-12-18T00:45:42;19.90;31.20
7234;DHT22;3658;47.992;10.158;2022-12-18T00:48:09;19.90;31.20
7234;DHT22;3658;47.992;10.158;2022-12-18T00:50:36;19.90;31.10
7234;DHT22;3658;47.992;10.158;2022-12-18T00:53:03;19.90;31.10
7234;DHT22;3658;47.992;10.158;2022-12-18T00:55:32;19.90;31.10
7234;DHT22;3658;47.992;10.158;2022-12-18T00:57:59;19.90;31.00
7234;DHT22;3658;47.992;10.158;2022-12-18T01:00:26;19.90;31.00
7234;DHT22;3658;47.992;10.158;2022-12-18T01:02:53;19.90;31.00
7234;DHT22;3658;47.992;10.158;2022-12-18T01:05:20;20.00;31.00
7234;DHT22;3658;47.992;10.158;2022-12-18T01:07:47;20.00;30.90
7234;DHT22;3658;47.992;10.158;2022-12-18T01:10:14;19.90;30.90
7234;DHT22;3658;47.992;10.158;2022-12-18T01:12:42;20.00;30.90
7234;DHT22;3658;47.992;10.158;2022-12-18T01:15:10;19.90;30.80
7234;DHT22;3658;47.992;10.158;2022-12-18T01:17:38;20.00;30.90
7234;DHT22;3658;47.992;10.158;2022-12-18T01:20:06;20.00;30.90
7234;DHT22;3658;47.992;10.158;2022-12-18T01:22:34;20.00;30.90
7234;DHT22;3658;47.992;10.158;2022-12-18T01:25:01;20.00;30.80
7234;DHT22;3658;47.992;10.158;2022-12-18T01:27:28;20.00;30.80
7234;DHT22;3658;47.992;10.158;2022-12-18T01:29:57;19.90;30.60
7234;DHT22;3658;47.992;10.158;2022-12-18T01:32:24;20.00;30.70
7234;DHT22;3658;47.992;10.158;2022-12-18T01:34:51;20.00;30.70
7234;DHT22;3658;47.992;10.158;2022-12-18T01:37:17;20.00;30.70
7234;DHT22;3658;47.992;10.158;2022-12-18T01:39:44;20.00;30.60
7234;DHT22;3658;47.992;10.158;2022-12-18T01:42:13;20.00;30.60
7234;DHT22;3658;47.992;10.158;2022-12-18T01:44:59;20.00;30.60
7234;DHT22;3658;47.992;10.158;2022-12-18T01:47:30;20.00;30.60
7234;DHT22;3658;47.992;10.158;2022-12-18T01:50:00;20.00;30.60
7234;DHT22;3658;47.992;10.158;2022-12-18T01:52:31;20.00;31.10
7234;DHT22;3658;47.992;10.158;2022-12-18T01:54:59;20.00;30.50
7234;DHT22;3658;47.992;10.158;2022-12-18T01:57:28;20.00;30.50
7234;DHT22;3658;47.992;10.158;2022-12-18T02:00:00;20.00;30.40
7234;DHT22;3658;47.992;10.158;2022-12-18T02:02:28;20.00;30.40
7234;DHT22;3658;47.992;10.158;2022-12-18T02:04:56;20.00;30.40
7234;DHT22;3658;47.992;10.158;2022-12-18T02:07:29;20.00;30.30
7234;DHT22;3658;47.992;10.158;2022-12-18T02:10:01;20.00;30.30
7234;DHT22;3658;47.992;10.158;2022-12-18T02:12:37;20.00;30.30
7234;DHT22;3658;47.992;10.158;2022-12-18T02:15:15;20.00;30.30
7234;DHT22;3658;47.992;10.158;2022-12-18T02:17:47;20.00;30.30
7234;DHT22;3658;47.992;10.158;2022-12-18T02:20:19;20.00;30.30
7234;DHT22;3658;47.992;10.158;2022-12-18T02:22:59;20.00;30.30
7234;DHT22;3658;47.992;10.158;2022-12-18T02:28:23;20.00;30.30
7234;DHT22;3658;47.992;10.158;2022-12-18T02:30:53;20.00;30.20
7234;DHT22;3658;47.992;10.158;2022-12-18T02:33:23;20.00;30.20
7234;DHT22;3658;47.992;10.158;2022-12-18T02:35:54;20.00;30.30
7234;DHT22;3658;47.992;10.158;2022-12-18T02:38:23;19.90;30.20
7234;DHT22;3658;47.992;10.158;2022-12-18T02:40:53;20.00;30.20
7234;DHT22;3658;47.992;10.158;2022-12-18T02:43:22;20.00;30.20
7234;DHT22;3658;47.992;10.158;2022-12-18T02:45:52;20.00;30.20
7234;DHT22;3658;47.992;10.158;2022-12-18T02:48:24;20.00;30.10
7234;DHT22;3658;47.992;10.158;2022-12-18T02:50:58;20.00;30.10
7234;DHT22;3658;47.992;10.158;2022-12-18T02:53:32;20.00;30.10
7234;DHT22;3658;47.992;10.158;2022-12-18T02:56:05;20.00;30.00
7234;DHT22;3658;47.992;10.158;2022-12-18T02:58:40;20.00;30.10
7234;DHT22;3658;47.992;10.158;2022-12-18T03:01:16;20.00;30.10
7234;DHT22;3658;47.992;10.158;2022-12-18T03:03:50;20.00;30.10
7234;DHT22;3658;47.992;10.158;2022-12-18T03:06:23;20.00;30.00
7234;DHT22;3658;47.992;10.158;2022-12-18T03:08:54;20.00;30.00
7234;DHT22;3658;47.992;10.158;2022-12-18T03:11:23;20.00;30.00
7234;DHT22;3658;47.992;10.158;2022-12-18T03:14:07;20.00;30.00
7234;DHT22;3658;47.992;10.158;2022-12-18T03:16:36;20.00;30.00
7234;DHT22;3658;47.992;10.158;2022-12-18T03:19:07;20.00;30.00
7234;DHT22;3658;47.992;10.158;2022-12-18T03:21:41;20.00;30.00
7234;DHT22;3658;47.992;10.158;2022-12-18T03:24:10;20.00;30.00
7234;DHT22;3658;47.992;10.158;2022-12-18T03:26:41;20.00;30.00
7234;DHT22;3658;47.992;10.158;2022-12-18T03:29:14;20.00;30.00
7234;DHT22;3658;47.992;10.158;2022-12-18T03:31:49;20.00;30.00
7234;DHT22;3658;47.992;10.158;2022-12-18T03:34:22;20.00;30.00
7234;DHT22;3658;47.992;10.158;2022-12-18T03:36:50;20.00;30.00
7234;DHT22;3658;47.992;10.158;2022-12-18T03:39:17;20.00;30.00
7234;DHT22;3658;47.992;10.158;2022-12-18T03:41:47;20.00;30.00
7234;DHT22;3658;47.992;10.158;2022-12-18T03:44:21;20.00;29.90
7234;DHT22;3658;47.992;10.158;2022-12-18T03:46:55;20.00;29.90
7234;DHT22;3658;47.992;10.158;2022-12-18T03:49:32;20.00;29.90
7234;DHT22;3658;47.992;10.158;2022-12-18T03:52:03;20.00;29.90
7234;DHT22;3658;47.992;10.158;2022-12-18T03:54:31;20.00;29.90
7234;DHT22;3658;47.992;10.158;2022-12-18T03:57:03;20.00;29.90
7234;DHT22;3658;47.992;10.158;2022-12-18T03:59:33;20.00;29.90
7234;DHT22;3658;47.992;10.158;2022-12-18T04:02:04;20.00;29.90
7234;DHT22;3658;47.992;10.158;2022-12-18T04:04:33;20.00;29.80
7234;DHT22;3658;47.992;10.158;2022-12-18T04:07:02;20.00;29.90
7234;DHT22;3658;47.992;10.158;2022-12-18T04:09:30;20.00;29.80
7234;DHT22;3658;47.992;10.158;2022-12-18T04:11:58;20.00;29.80
7234;DHT22;3658;47.992;10.158;2022-12-18T04:14:25;20.00;29.80
7234;DHT22;3658;47.992;10.158;2022-12-18T04:16:53;20.10;29.80
7234;DHT22;3658;47.992;10.158;2022-12-18T04:19:20;20.00;29.70
7234;DHT22;3658;47.992;10.158;2022-12-18T04:21:50;20.00;29.70
7234;DHT22;3658;47.992;10.158;2022-12-18T04:24:17;20.00;29.70
7234;DHT22;3658;47.992;10.158;2022-12-18T04:26:44;20.00;29.70
7234;DHT22;3658;47.992;10.158;2022-12-18T04:29:11;20.00;29.70
7234;DHT22;3658;47.992;10.158;2022-12-18T04:31:38;20.10;29.70
7234;DHT22;3658;47.992;10.158;2022-12-18T04:34:06;20.00;29.70
7234;DHT22;3658;47.992;10.158;2022-12-18T04:36:33;20.10;29.70
7234;DHT22;3658;47.992;10.158;2022-12-18T04:39:00;20.10;29.70
7234;DHT22;3658;47.992;10.158;2022-12-18T04:41:27;20.00;29.60
7234;DHT22;3658;47.992;10.158;2022-12-18T04:43:54;20.00;29.60
7234;DHT22;3658;47.992;10.158;2022-12-18T04:46:21;20.00;29.60
7234;DHT22;3658;47.992;10.158;2022-12-18T04:48:48;20.00;29.60
7234;DHT22;3658;47.992;10.158;2022-12-18T04:51:16;20.00;29.60
7234;DHT22;3658;47.992;10.158;2022-12-18T04:53:43;20.10;29.60
7234;DHT22;3658;47.992;10.158;2022-12-18T04:56:13;20.10;29.60
7234;DHT22;3658;47.992;10.158;2022-12-18T04:58:41;20.00;29.60
7234;DHT22;3658;47.992;10.158;2022-12-18T05:01:09;20.10;29.60
7234;DHT22;3658;47.992;10.158;2022-12-18T05:03:37;20.10;29.60
7234;DHT22;3658;47.992;10.158;2022-12-18T05:06:04;20.10;29.60
7234;DHT22;3658;47.992;10.158;2022-12-18T05:08:33;20.00;29.60
7234;DHT22;3658;47.992;10.158;2022-12-18T05:11:01;20.00;29.50
7234;DHT22;3658;47.992;10.158;2022-12-18T05:13:29;20.00;29.50
7234;DHT22;3658;47.992;10.158;2022-12-18T05:15:56;20.00;29.50
7234;DHT22;3658;47.992;10.158;2022-12-18T05:18:23;20.00;29.50
7234;DHT22;3658;47.992;10.158;2022-12-18T05:20:51;20.00;29.50
7234;DHT22;3658;47.992;10.158;2022-12-18T05:23:18;20.00;29.50
7234;DHT22;3658;47.992;10.158;2022-12-18T05:25:51;20.00;29.50
7234;DHT22;3658;47.992;10.158;2022-12-18T05:28:18;20.00;29.50
7234;DHT22;3658;47.992;10.158;2022-12-18T05:30:48;20.10;29.50
7234;DHT22;3658;47.992;10.158;2022-12-18T05:33:15;20.00;29.50
7234;DHT22;3658;47.992;10.158;2022-12-18T05:35:43;20.10;29.50
7234;DHT22;3658;47.992;10.158;2022-12-18T05:38:10;20.10;29.50
7234;DHT22;3658;47.992;10.158;2022-12-18T05:40:41;20.10;29.50
7234;DHT22;3658;47.992;10.158;2022-12-18T05:43:10;20.10;29.50
7234;DHT22;3658;47.992;10.158;2022-12-18T05:45:37;20.00;29.40
7234;DHT22;3658;47.992;10.158;2022-12-18T05:48:05;20.00;29.40
7234;DHT22;3658;47.992;10.158;2022-12-18T05:50:34;20.10;29.50
7234;DHT22;3658;47.992;10.158;2022-12-18T05:53:01;20.10;29.40
7234;DHT22;3658;47.992;10.158;2022-12-18T05:55:28;20.10;29.40
7234;DHT22;3658;47.992;10.158;2022-12-18T05:57:55;20.10;29.60
7234;DHT22;3658;47.992;10.158;2022-12-18T06:00:24;20.10;30.40
7234;DHT22;3658;47.992;10.158;2022-12-18T06:02:51;20.10;30.30
7234;DHT22;3658;47.992;10.158;2022-12-18T06:05:18;20.10;30.60
7234;DHT22;3658;47.992;10.158;2022-12-18T06:07:45;20.20;31.00
7234;DHT22;3658;47.992;10.158;2022-12-18T06:10:12;20.10;31.20
7234;DHT22;3658;47.992;10.158;2022-12-18T06:12:39;20.20;31.40
7234;DHT22;3658;47.992;10.158;2022-12-18T06:15:06;20.20;31.40
7234;DHT22;3658;47.992;10.158;2022-12-18T06:17:35;20.20;31.60
7234;DHT22;3658;47.992;10.158;2022-12-18T06:20:04;20.20;31.60
7234;DHT22;3658;47.992;10.158;2022-12-18T06:22:32;20.10;31.60
7234;DHT22;3658;47.992;10.158;2022-12-18T06:25:00;20.10;31.70
7234;DHT22;3658;47.992;10.158;2022-12-18T06:27:27;20.10;31.70
7234;DHT22;3658;47.992;10.158;2022-12-18T06:29:54;20.10;31.80
7234;DHT22;3658;47.992;10.158;2022-12-18T06:32:21;20.20;31.90
7234;DHT22;3658;47.992;10.158;2022-12-18T06:34:50;20.20;32.00
7234;DHT22;3658;47.992;10.158;2022-12-18T06:37:18;20.20;32.00
7234;DHT22;3658;47.992;10.158;2022-12-18T06:39:45;20.20;31.90
7234;DHT22;3658;47.992;10.158;2022-12-18T06:42:12;20.20;32.00
7234;DHT22;3658;47.992;10.158;2022-12-18T06:44:39;20.20;32.10
7234;DHT22;3658;47.992;10.158;2022-12-18T06:47:06;20.20;32.10
7234;DHT22;3658;47.992;10.158;2022-12-18T06:49:33;20.20;32.10
7234;DHT22;3658;47.992;10.158;2022-12-18T06:52:02;20.20;32.10
7234;DHT22;3658;47.992;10.158;2022-12-18T06:54:29;20.20;32.10
7234;DHT22;3658;47.992;10.158;2022-12-18T06:56:56;20.20;32.10
7234;DHT22;3658;47.992;10.158;2022-12-18T06:59:22;20.20;32.10
7234;DHT22;3658;47.992;10.158;2022-12-18T07:01:49;20.20;32.10
7234;DHT22;3658;47.992;10.158;2022-12-18T07:04:17;20.20;32.10
7234;DHT22;3658;47.992;10.158;2022-12-18T07:06:44;20.20;32.10
7234;DHT22;3658;47.992;10.158;2022-12-18T07:09:13;20.20;32.10
7234;DHT22;3658;47.992;10.158;2022-12-18T07:11:40;20.20;32.10
7234;DHT22;3658;47.992;10.158;2022-12-18T07:14:07;20.20;32.00
7234;DHT22;3658;47.992;10.158;2022-12-18T07:16:34;20.20;32.10
7234;DHT22;3658;47.992;10.158;2022-12-18T07:19:01;20.20;32.10
7234;DHT22;3658;47.992;10.158;2022-12-18T07:21:28;20.20;32.10
7234;DHT22;3658;47.992;10.158;2022-12-18T07:23:55;20.20;32.10
7234;DHT22;3658;47.992;10.158;2022-12-18T07:26:24;20.20;32.10
7234;DHT22;3658;47.992;10.158;2022-12-18T07:28:54;20.20;32.10
7234;DHT22;3658;47.992;10.158;2022-12-18T07:31:23;20.20;32.10
7234;DHT22;3658;47.992;10.158;2022-12-18T07:33:51;20.20;32.00
7234;DHT22;3658;47.992;10.158;2022-12-18T07:36:19;20.20;32.10
7234;DHT22;3658;47.992;10.158;2022-12-18T07:38:47;20.20;32.10
7234;DHT22;3658;47.992;10.158;2022-12-18T07:41:14;20.20;32.00
7234;DHT22;3658;47.992;10.158;2022-12-18T07:43:43;20.20;32.10
7234;DHT22;3658;47.992;10.158;2022-12-18T07:46:10;20.20;32.10
7234;DHT22;3658;47.992;10.158;2022-12-18T07:48:39;20.20;32.20
7234;DHT22;3658;47.992;10.158;2022-12-18T07:51:06;20.20;32.20
7234;DHT22;3658;47.992;10.158;2022-12-18T07:53:35;20.20;32.20
7234;DHT22;3658;47.992;10.158;2022-12-18T07:56:04;20.20;32.10
7234;DHT22;3658;47.992;10.158;2022-12-18T07:58:33;20.20;32.20
7234;DHT22;3658;47.992;10.158;2022-12-18T08:01:06;20.20;32.20
7234;DHT22;3658;47.992;10.158;2022-12-18T08:03:33;20.20;32.10
7234;DHT22;3658;47.992;10.158;2022-12-18T08:06:01;20.20;32.50
7234;DHT22;3658;47.992;10.158;2022-12-18T08:08:28;20.20;32.80
7234;DHT22;3658;47.992;10.158;2022-12-18T08:10:56;20.10;32.90
7234;DHT22;3658;47.992;10.158;2022-12-18T08:13:23;20.10;32.90
7234;DHT22;3658;47.992;10.158;2022-12-18T08:15:56;20.10;32.90
7234;DHT22;3658;47.992;10.158;2022-12-18T08:18:25;20.10;32.90
7234;DHT22;3658;47.992;10.158;2022-12-18T08:20:52;20.20;32.90
7234;DHT22;3658;47.992;10.158;2022-12-18T08:23:18;20.20;33.00
7234;DHT22;3658;47.992;10.158;2022-12-18T08:25:46;20.20;33.00
7234;DHT22;3658;47.992;10.158;2022-12-18T08:28:12;20.10;32.90
7234;DHT22;3658;47.992;10.158;2022-12-18T08:30:43;20.10;33.00
7234;DHT22;3658;47.992;10.158;2022-12-18T08:33:10;20.10;33.00
7234;DHT22;3658;47.992;10.158;2022-12-18T08:35:38;20.20;33.10
7234;DHT22;3658;47.992;10.158;2022-12-18T08:38:05;20.20;33.10
7234;DHT22;3658;47.992;10.158;2022-12-18T08:40:32;20.20;33.10
7234;DHT22;3658;47.992;10.158;2022-12-18T08:42:59;20.20;33.20
7234;DHT22;3658;47.992;10.158;2022-12-18T08:45:44;20.20;33.20
7234;DHT22;3658;47.992;10.158;2022-12-18T08:48:11;20.20;33.20
7234;DHT22;3658;47.992;10.158;2022-12-18T08:50:39;20.20;33.20
7234;DHT22;3658;47.992;10.158;2022-12-18T08:53:06;20.20;33.30
7234;DHT22;3658;47.992;10.158;2022-12-18T08:55:34;20.20;33.30
7234;DHT22;3658;47.992;10.158;2022-12-18T08:58:01;20.20;33.20
7234;DHT22;3658;47.992;10.158;2022-12-18T09:00:28;20.20;33.20
7234;DHT22;3658;47.992;10.158;2022-12-18T09:02:56;20.20;33.20
7234;DHT22;3658;47.992;10.158;2022-12-18T09:05:22;20.20;33.20
7234;DHT22;3658;47.992;10.158;2022-12-18T09:07:51;20.20;33.10
7234;DHT22;3658;47.992;10.158;2022-12-18T09:10:18;20.20;33.20
7234;DHT22;3658;47.992;10.158;2022-12-18T09:12:45;20.20;33.20
7234;DHT22;3658;47.992;10.158;2022-12-18T09:15:11;20.20;33.30
7234;DHT22;3658;47.992;10.158;2022-12-18T09:17:38;20.20;33.40
7234;DHT22;3658;47.992;10.158;2022-12-18T09:20:06;20.20;33.30
7234;DHT22;3658;47.992;10.158;2022-12-18T09:22:33;20.20;33.40
7234;DHT22;3658;47.992;10.158;2022-12-18T09:25:02;20.20;33.40
7234;DHT22;3658;47.992;10.158;2022-12-18T09:27:29;20.20;33.40
7234;DHT22;3658;47.992;10.158;2022-12-18T09:29:56;20.20;33.40
7234;DHT22;3658;47.992;10.158;2022-12-18T09:32:23;20.20;33.30
7234;DHT22;3658;47.992;10.158;2022-12-18T09:34:50;20.20;33.40
7234;DHT22;3658;47.992;10.158;2022-12-18T09:37:17;20.20;33.50
7234;DHT22;3658;47.992;10.158;2022-12-18T09:39:44;20.20;33.60
7234;DHT22;3658;47.992;10.158;2022-12-18T09:42:19;20.20;33.50
7234;DHT22;3658;47.992;10.158;2022-12-18T09:44:50;20.20;33.50
7234;DHT22;3658;47.992;10.158;2022-12-18T09:47:20;20.20;33.50
7234;DHT22;3658;47.992;10.158;2022-12-18T09:49:52;20.20;33.50
7234;DHT22;3658;47.992;10.158;2022-12-18T09:52:25;20.20;33.40
7234;DHT22;3658;47.992;10.158;2022-12-18T09:54:56;20.20;33.20
7234;DHT22;3658;47.992;10.158;2022-12-18T09:57:26;20.20;33.50
7234;DHT22;3658;47.992;10.158;2022-12-18T09:59:56;20.20;33.70
7234;DHT22;3658;47.992;10.158;2022-12-18T10:02:26;20.20;33.80
7234;DHT22;3658;47.992;10.158;2022-12-18T10:05:07;20.20;34.00
7234;DHT22;3658;47.992;10.158;2022-12-18T10:07:47;20.20;34.20
7234;DHT22;3658;47.992;10.158;2022-12-18T10:10:24;20.20;34.20
7234;DHT22;3658;47.992;10.158;2022-12-18T10:12:59;20.20;34.40
7234;DHT22;3658;47.992;10.158;2022-12-18T10:15:33;20.20;34.20
7234;DHT22;3658;47.992;10.158;2022-12-18T10:18:07;20.20;33.90
7234;DHT22;3658;47.992;10.158;2022-12-18T10:20:43;20.20;33.80
7234;DHT22;3658;47.992;10.158;2022-12-18T10:23:16;20.20;33.70
7234;DHT22;3658;47.992;10.158;2022-12-18T10:25:52;20.20;33.70
7234;DHT22;3658;47.992;10.158;2022-12-18T10:28:23;20.20;33.70
7234;DHT22;3658;47.992;10.158;2022-12-18T10:30:51;20.30;33.70
7234;DHT22;3658;47.992;10.158;2022-12-18T10:33:20;20.30;33.70
7234;DHT22;3658;47.992;10.158;2022-12-18T10:35:48;20.20;34.00
7234;DHT22;3658;47.992;10.158;2022-12-18T10:38:25;20.30;34.00
7234;DHT22;3658;47.992;10.158;2022-12-18T10:40:55;20.30;34.00
7234;DHT22;3658;47.992;10.158;2022-12-18T10:43:26;20.20;34.00
7234;DHT22;3658;47.992;10.158;2022-12-18T10:46:12;20.30;34.00
7234;DHT22;3658;47.992;10.158;2022-12-18T10:48:47;20.30;34.00
7234;DHT22;3658;47.992;10.158;2022-12-18T10:51:20;20.30;34.10
7234;DHT22;3658;47.992;10.158;2022-12-18T10:53:54;20.20;34.00
7234;DHT22;3658;47.992;10.158;2022-12-18T10:56:22;20.30;34.30
7234;DHT22;3658;47.992;10.158;2022-12-18T10:58:58;20.30;34.20
7234;DHT22;3658;47.992;10.158;2022-12-18T11:01:26;20.30;34.10
7234;DHT22;3658;47.992;10.158;2022-12-18T11:04:04;20.30;34.20
7234;DHT22;3658;47.992;10.158;2022-12-18T11:06:34;20.20;34.20
7234;DHT22;3658;47.992;10.158;2022-12-18T11:09:20;20.30;34.10
7234;DHT22;3658;47.992;10.158;2022-12-18T11:11:48;20.30;34.10
7234;DHT22;3658;47.992;10.158;2022-12-18T11:14:22;20.30;33.70
7234;DHT22;3658;47.992;10.158;2022-12-18T11:16:51;20.30;33.70
7234;DHT22;3658;47.992;10.158;2022-12-18T11:19:28;20.30;33.60
7234;DHT22;3658;47.992;10.158;2022-12-18T11:21:57;20.30;33.60
7234;DHT22;3658;47.992;10.158;2022-12-18T11:24:28;20.30;33.60
7234;DHT22;3658;47.992;10.158;2022-12-18T11:26:56;20.30;33.70
7234;DHT22;3658;47.992;10.158;2022-12-18T11:29:37;20.30;33.60
7234;DHT22;3658;47.992;10.158;2022-12-18T11:32:32;20.20;33.50
7234;DHT22;3658;47.992;10.158;2022-12-18T11:35:13;20.30;33.80
7234;DHT22;3658;47.992;10.158;2022-12-18T11:37:46;20.30;33.80
7234;DHT22;3658;47.992;10.158;2022-12-18T11:40:18;20.30;33.90
7234;DHT22;3658;47.992;10.158;2022-12-18T11:42:50;20.40;33.90
7234;DHT22;3658;47.992;10.158;2022-12-18T11:45:31;20.30;33.90
7234;DHT22;3658;47.992;10.158;2022-12-18T11:48:03;20.30;33.70
7234;DHT22;3658;47.992;10.158;2022-12-18T11:50:38;20.30;33.50
7234;DHT22;3658;47.992;10.158;2022-12-18T11:53:10;20.30;34.00
7234;DHT22;3658;47.992;10.158;2022-12-18T11:55:43;20.30;34.10
7234;DHT22;3658;47.992;10.158;2022-12-18T11:58:24;20.40;34.30
7234;DHT22;3658;47.992;10.158;2022-12-18T12:00:58;20.40;34.20
7234;DHT22;3658;47.992;10.158;2022-12-18T12:03:45;20.40;33.90
7234;DHT22;3658;47.992;10.158;2022-12-18T12:06:20;20.50;33.90
7234;DHT22;3658;47.992;10.158;2022-12-18T12:09:01;20.40;33.80
7234;DHT22;3658;47.992;10.158;2022-12-18T12:11:36;20.40;33.70
7234;DHT22;3658;47.992;10.158;2022-12-18T12:14:16;20.50;33.70
7234;DHT22;3658;47.992;10.158;2022-12-18T12:16:51;20.40;33.60
7234;DHT22;3658;47.992;10.158;2022-12-18T12:19:33;20.40;33.70
7234;DHT22;3658;47.992;10.158;2022-12-18T12:22:10;20.40;33.80
7234;DHT22;3658;47.992;10.158;2022-12-18T12:24:50;20.40;33.90
7234;DHT22;3658;47.992;10.158;2022-12-18T12:27:34;20.40;34.00
7234;DHT22;3658;47.992;10.158;2022-12-18T12:30:06;20.40;34.10
7234;DHT22;3658;47.992;10.158;2022-12-18T12:32:50;20.40;34.10
7234;DHT22;3658;47.992;10.158;2022-12-18T12:35:32;20.40;34.00
7234;DHT22;3658;47.992;10.158;2022-12-18T12:38:08;20.40;34.00
7234;DHT22;3658;47.992;10.158;2022-12-18T12:40:39;20.30;33.80
7234;DHT22;3658;47.992;10.158;2022-12-18T12:43:24;20.30;33.80
7234;DHT22;3658;47.992;10.158;2022-12-18T12:45:54;20.30;33.80
7234;DHT22;3658;47.992;10.158;2022-12-18T12:48:33;20.30;33.80
7234;DHT22;3658;47.992;10.158;2022-12-18T12:51:05;20.30;33.70
7234;DHT22;3658;47.992;10.158;2022-12-18T12:53:37;20.30;33.80
7234;DHT22;3658;47.992;10.158;2022-12-18T12:56:05;20.30;33.70
7234;DHT22;3658;47.992;10.158;2022-12-18T12:58:38;20.30;33.60
7234;DHT22;3658;47.992;10.158;2022-12-18T13:01:14;20.30;33.60
7234;DHT22;3658;47.992;10.158;2022-12-18T13:03:55;20.30;33.50
7234;DHT22;3658;47.992;10.158;2022-12-18T13:06:30;20.30;33.60
7234;DHT22;3658;47.992;10.158;2022-12-18T13:09:00;20.30;33.50
7234;DHT22;3658;47.992;10.158;2022-12-18T13:11:35;20.30;33.60
7234;DHT22;3658;47.992;10.158;2022-12-18T13:14:23;20.30;33.60
7234;DHT22;3658;47.992;10.158;2022-12-18T13:16:51;20.30;33.50
7234;DHT22;3658;47.992;10.158;2022-12-18T13:19:26;20.30;33.50
7234;DHT22;3658;47.992;10.158;2022-12-18T13:21:54;20.30;33.50
7234;DHT22;3658;47.992;10.158;2022-12-18T13:24:25;20.30;33.50
7234;DHT22;3658;47.992;10.158;2022-12-18T13:26:53;20.30;33.50
7234;DHT22;3658;47.992;10.158;2022-12-18T13:29:41;20.30;33.50
7234;DHT22;3658;47.992;10.158;2022-12-18T13:32:23;20.30;33.50
7234;DHT22;3658;47.992;10.158;2022-12-18T13:37:57;19.90;30.20
7234;DHT22;3658;47.992;10.158;2022-12-18T13:40:55;19.70;29.60
7234;DHT22;3658;47.992;10.158;2022-12-18T13:43:28;19.50;28.60
7234;DHT22;3658;47.992;10.158;2022-12-18T13:46:04;19.40;28.00
7234;DHT22;3658;47.992;10.158;2022-12-18T13:48:33;19.40;27.50
7234;DHT22;3658;47.992;10.158;2022-12-18T13:51:04;19.30;26.80
7234;DHT22;3658;47.992;10.158;2022-12-18T13:53:38;19.40;26.40
7234;DHT22;3658;47.992;10.158;2022-12-18T13:56:06;19.60;26.80
7234;DHT22;3658;47.992;10.158;2022-12-18T13:58:33;19.70;27.10
7234;DHT22;3658;47.992;10.158;2022-12-18T14:01:00;19.80;27.50
7234;DHT22;3658;47.992;10.158;2022-12-18T14:03:30;19.90;27.80
7234;DHT22;3658;47.992;10.158;2022-12-18T14:06:01;19.90;28.00
7234;DHT22;3658;47.992;10.158;2022-12-18T14:08:38;19.90;28.30
7234;DHT22;3658;47.992;10.158;2022-12-18T14:11:06;20.00;28.50
7234;DHT22;3658;47.992;10.158;2022-12-18T14:13:37;20.00;29.00
7234;DHT22;3658;47.992;10.158;2022-12-18T14:16:07;20.00;29.80
7234;DHT22;3658;47.992;10.158;2022-12-18T14:18:41;20.10;30.10
7234;DHT22;3658;47.992;10.158;2022-12-18T14:21:18;20.10;30.30
7234;DHT22;3658;47.992;10.158;2022-12-18T14:23:48;20.10;30.40
7234;DHT22;3658;47.992;10.158;2022-12-18T14:26:23;20.10;30.80
7234;DHT22;3658;47.992;10.158;2022-12-18T14:28:52;20.20;30.90
7234;DHT22;3658;47.992;10.158;2022-12-18T14:31:22;20.20;31.10
7234;DHT22;3658;47.992;10.158;2022-12-18T14:33:49;20.20;31.20
7234;DHT22;3658;47.992;10.158;2022-12-18T14:36:18;20.20;31.40
7234;DHT22;3658;47.992;10.158;2022-12-18T14:38:50;20.20;31.30
7234;DHT22;3658;47.992;10.158;2022-12-18T14:41:20;20.20;31.40
7234;DHT22;3658;47.992;10.158;2022-12-18T14:43:49;20.20;31.60
7234;DHT22;3658;47.992;10.158;2022-12-18T14:46:33;20.20;31.80
7234;DHT22;3658;47.992;10.158;2022-12-18T14:49:02;20.20;31.90
7234;DHT22;3658;47.992;10.158;2022-12-18T14:51:32;20.20;31.90
7234;DHT22;3658;47.992;10.158;2022-12-18T14:54:02;20.20;32.00
7234;DHT22;3658;47.992;10.158;2022-12-18T14:56:32;20.20;31.90
7234;DHT22;3658;47.992;10.158;2022-12-18T14:59:03;20.20;32.20
7234;DHT22;3658;47.992;10.158;2022-12-18T15:01:32;20.20;32.40
7234;DHT22;3658;47.992;10.158;2022-12-18T15:04:00;20.20;32.00
7234;DHT22;3658;47.992;10.158;2022-12-18T15:06:33;20.10;32.00
7234;DHT22;3658;47.992;10.158;2022-12-18T15:09:04;20.10;32.20
7234;DHT22;3658;47.992;10.158;2022-12-18T15:11:35;20.20;32.50
7234;DHT22;3658;47.992;10.158;2022-12-18T15:14:21;20.20;33.20
7234;DHT22;3658;47.992;10.158;2022-12-18T15:16:51;20.10;32.70
7234;DHT22;3658;47.992;10.158;2022-12-18T15:19:20;20.10;32.70
7234;DHT22;3658;47.992;10.158;2022-12-18T15:21:48;20.10;32.70
7234;DHT22;3658;47.992;10.158;2022-12-18T15:24:20;20.10;33.00
7234;DHT22;3658;47.992;10.158;2022-12-18T15:26:50;20.10;33.00
7234;DHT22;3658;47.992;10.158;2022-12-18T15:29:20;20.20;33.10
7234;DHT22;3658;47.992;10.158;2022-12-18T15:31:59;20.20;33.50
7234;DHT22;3658;47.992;10.158;2022-12-18T15:34:27;20.20;33.30
7234;DHT22;3658;47.992;10.158;2022-12-18T15:36:55;20.10;33.20
7234;DHT22;3658;47.992;10.158;2022-12-18T15:39:23;20.10;33.50
7234;DHT22;3658;47.992;10.158;2022-12-18T15:41:50;20.10;33.30
7234;DHT22;3658;47.992;10.158;2022-12-18T15:44:35;20.10;33.50
7234;DHT22;3658;47.992;10.158;2022-12-18T15:47:02;20.10;33.50
7234;DHT22;3658;47.992;10.158;2022-12-18T15:49:29;20.10;33.50
7234;DHT22;3658;47.992;10.158;2022-12-18T15:51:58;20.10;33.50
7234;DHT22;3658;47.992;10.158;2022-12-18T15:54:27;20.10;33.40
7234;DHT22;3658;47.992;10.158;2022-12-18T15:57:12;20.10;33.30
7234;DHT22;3658;47.992;10.158;2022-12-18T15:59:53;20.10;33.30
7234;DHT22;3658;47.992;10.158;2022-12-18T16:02:23;20.10;33.30
7234;DHT22;3658;47.992;10.158;2022-12-18T16:04:51;20.10;33.20
7234;DHT22;3658;47.992;10.158;2022-12-18T16:07:19;20.10;33.20
7234;DHT22;3658;47.992;10.158;2022-12-18T16:09:49;20.10;33.20
7234;DHT22;3658;47.992;10.158;2022-12-18T16:12:19;20.10;33.20